sensor_id;sensor_type;location;lat;lon;timestamp;pressure;altitude;pressure_sealevel;temperature;humidity
38191;BME280;25191;47.510;19.124;2023-04-26T00:10:42;99606.88;;;22.51;43.11
38191;BME280;25191;47.510;19.124;2023-04-26T00:30:42;99633.41;;;22.50;42.81
38191;BME280;25191;47.510;19.124;2023-04-26T00:50:46;99648.81;;;22.45;43.26
38191;BME280;25191;47.510;19.124;2023-04-26T01:10:47;99659.50;;;22.43;42.89
38191;BME280;25191;47.510;19.124;2023-04-26T01:30:48;99668.28;;;22.34;43.21
38191;BME280;25191;47.510;19.124;2023-04-26T01:50:48;99685.06;;;22.33;43.15
38191;BME280;25191;47.510;19.124;2023-04-26T02:10:48;99691.75;;;22.27;43.24
38191;BME280;25191;47.510;19.124;2023-04-26T02:30:49;99706.19;;;22.23;43.22
38191;BME280;25191;47.510;19.124;2023-04-26T02:50:49;99709.81;;;22.22;43.09
38191;BME280;25191;47.510;19.124;2023-04-26T03:10:50;99740.63;;;22.12;43.27
38191;BME280;25191;47.510;19.124;2023-04-26T03:30:50;99776.00;;;22.09;43.77
38191;BME280;25191;47.510;19.124;2023-04-26T03:50:50;99786.00;;;22.15;43.53
38191;BME280;25191;47.510;19.124;2023-04-26T04:10:51;99801.97;;;22.14;43.18
38191;BME280;25191;47.510;19.124;2023-04-26T04:30:51;99800.59;;;22.19;43.79
38191;BME280;25191;47.510;19.124;2023-04-26T04:50:57;99850.28;;;22.24;44.88
38191;BME280;25191;47.510;19.124;2023-04-26T05:11:00;99881.38;;;22.20;43.41
38191;BME280;25191;47.510;19.124;2023-04-26T05:31:01;99896.75;;;22.15;43.09
38191;BME280;25191;47.510;19.124;2023-04-26T05:51:01;99889.69;;;22.16;42.52
38191;BME280;25191;47.510;19.124;2023-04-26T06:11:08;99917.72;;;22.17;42.61
38191;BME280;25191;47.510;19.124;2023-04-26T06:31:10;99941.56;;;22.15;42.53
38191;BME280;25191;47.510;19.124;2023-04-26T06:51:10;99929.38;;;22.14;42.12
38191;BME280;25191;47.510;19.124;2023-04-26T07:11:11;99932.13;;;22.13;41.69
38191;BME280;25191;47.510;19.124;2023-04-26T07:31:13;99965.59;;;22.12;40.92
38191;BME280;25191;47.510;19.124;2023-04-26T07:51:13;99977.66;;;22.15;41.12
38191;BME280;25191;47.510;19.124;2023-04-26T08:11:13;99997.78;;;22.16;40.87
38191;BME280;25191;47.510;19.124;2023-04-26T08:31:14;100010.13;;;22.15;40.73
38191;BME280;25191;47.510;19.124;2023-04-26T08:51:14;100020.56;;;22.17;40.81
38191;BME280;25191;47.510;19.124;2023-04-26T09:11:15;100022.22;;;22.18;40.81
38191;BME280;25191;47.510;19.124;2023-04-26T09:31:38;100020.41;;;22.18;40.71
38191;BME280;25191;47.510;19.124;2023-04-26T09:51:38;100027.38;;;22.19;41.10
38191;BME280;25191;47.510;19.124;2023-04-26T10:11:39;100018.91;;;22.26;40.93
38191;BME280;25191;47.510;19.124;2023-04-26T10:52:07;100016.91;;;22.39;41.12
38191;BME280;25191;47.510;19.124;2023-04-26T11:12:12;100006.78;;;22.44;40.87
38191;BME280;25191;47.510;19.124;2023-04-26T11:32:13;100019.69;;;22.47;40.63
38191;BME280;25191;47.510;19.124;2023-04-26T11:52:13;100024.97;;;22.47;40.70
38191;BME280;25191;47.510;19.124;2023-04-26T12:12:14;100038.84;;;22.49;40.45
38191;BME280;25191;47.510;19.124;2023-04-26T12:32:15;100042.44;;;22.48;40.11
38191;BME280;25191;47.510;19.124;2023-04-26T12:52:15;100044.13;;;22.59;40.09
38191;BME280;25191;47.510;19.124;2023-04-26T13:12:17;100046.13;;;22.67;40.23
38191;BME280;25191;47.510;19.124;2023-04-26T13:32:18;100063.63;;;22.68;39.95
38191;BME280;25191;47.510;19.124;2023-04-26T13:52:18;100070.84;;;22.85;40.28
38191;BME280;25191;47.510;19.124;2023-04-26T14:12:18;100101.97;;;22.82;40.24
38191;BME280;25191;47.510;19.124;2023-04-26T14:32:19;100105.44;;;22.82;40.16
38191;BME280;25191;47.510;19.124;2023-04-26T14:52:19;100116.84;;;22.83;40.10
38191;BME280;25191;47.510;19.124;2023-04-26T15:12:20;100129.09;;;22.84;40.04
38191;BME280;25191;47.510;19.124;2023-04-26T15:32:20;100130.03;;;22.83;39.56
38191;BME280;25191;47.510;19.124;2023-04-26T15:52:21;100137.03;;;23.03;39.52
38191;BME280;25191;47.510;19.124;2023-04-26T16:12:21;100122.41;;;23.88;30.73
38191;BME280;25191;47.510;19.124;2023-04-26T16:32:23;100147.34;;;23.26;29.89
38191;BME280;25191;47.510;19.124;2023-04-26T16:52:25;100165.03;;;22.85;28.57
38191;BME280;25191;47.510;19.124;2023-04-26T17:12:25;100196.13;;;22.71;32.39
38191;BME280;25191;47.510;19.124;2023-04-26T17:32:26;100195.19;;;22.82;39.93
38191;BME280;25191;47.510;19.124;2023-04-26T17:52:28;100221.16;;;22.77;40.82
38191;BME280;25191;47.510;19.124;2023-04-26T18:12:29;100253.13;;;22.74;41.04
38191;BME280;25191;47.510;19.124;2023-04-26T18:32:33;100261.44;;;22.69;41.49
38191;BME280;25191;47.510;19.124;2023-04-26T18:52:33;100296.00;;;22.66;41.38
38191;BME280;25191;47.510;19.124;2023-04-26T19:12:34;100315.13;;;22.59;40.84
38191;BME280;25191;47.510;19.124;2023-04-26T19:32:37;100314.53;;;22.55;41.23
38191;BME280;25191;47.510;19.124;2023-04-26T19:52:38;100320.22;;;22.50;42.09
38191;BME280;25191;47.510;19.124;2023-04-26T20:12:39;100335.47;;;22.47;42.23
38191;BME280;25191;47.510;19.124;2023-04-26T20:32:41;100353.63;;;22.40;42.55
38191;BME280;25191;47.510;19.124;2023-04-26T20:52:41;100368.09;;;22.34;42.39
38191;BME280;25191;47.510;19.124;2023-04-26T21:12:41;100379.03;;;22.30;42.39
38191;BME280;25191;47.510;19.124;2023-04-26T21:32:42;100394.72;;;22.31;42.68
38191;BME280;25191;47.510;19.124;2023-04-26T21:52:42;100407.91;;;22.31;42.81
38191;BME280;25191;47.510;19.124;2023-04-26T22:12:42;100411.78;;;22.27;42.41
38191;BME280;25191;47.510;19.124;2023-04-26T22:32:43;100428.84;;;22.23;42.67
38191;BME280;25191;47.510;19.124;2023-04-26T23:12:52;100452.72;;;22.10;42.87
38191;BME280;25191;47.510;19.124;2023-04-26T23:32:52;100480.41;;;22.04;42.75
38191;BME280;25191;47.510;19.124;2023-04-26T23:52:52;100480.53;;;22.03;42.80
